sensor_id;sensor_type;location;lat;lon;timestamp;temperature;humidity
10270;DHT22;5180;50.832;5.390;2022-11-20T00:00:45;4.80;99.90
10270;DHT22;5180;50.832;5.390;2022-11-20T00:03:10;4.80;99.90
10270;DHT22;5180;50.832;5.390;2022-11-20T00:05:36;4.80;99.90
10270;DHT22;5180;50.832;5.390;2022-11-20T00:08:02;4.70;99.90
10270;DHT22;5180;50.832;5.390;2022-11-20T00:10:27;4.70;99.90
10270;DHT22;5180;50.832;5.390;2022-11-20T00:12:53;4.70;99.90
10270;DHT22;5180;50.832;5.390;2022-11-20T00:15:18;4.80;99.90
10270;DHT22;5180;50.832;5.390;2022-11-20T00:17:44;4.70;99.90
10270;DHT22;5180;50.832;5.390;2022-11-20T00:20:10;4.70;99.90
10270;DHT22;5180;50.832;5.390;2022-11-20T00:22:36;4.60;99.90
10270;DHT22;5180;50.832;5.390;2022-11-20T00:25:02;4.60;99.90
10270;DHT22;5180;50.832;5.390;2022-11-20T00:27:28;4.70;99.90
10270;DHT22;5180;50.832;5.390;2022-11-20T00:29:53;4.70;99.90
10270;DHT22;5180;50.832;5.390;2022-11-20T00:32:19;4.60;99.90
10270;DHT22;5180;50.832;5.390;2022-11-20T00:34:44;4.60;99.90
10270;DHT22;5180;50.832;5.390;2022-11-20T00:37:10;4.70;99.90
10270;DHT22;5180;50.832;5.390;2022-11-20T00:39:36;4.80;99.90
10270;DHT22;5180;50.832;5.390;2022-11-20T00:42:01;4.80;99.90
10270;DHT22;5180;50.832;5.390;2022-11-20T00:44:27;4.80;99.90
10270;DHT22;5180;50.832;5.390;2022-11-20T00:46:52;4.80;99.90
10270;DHT22;5180;50.832;5.390;2022-11-20T00:49:18;4.90;99.90
10270;DHT22;5180;50.832;5.390;2022-11-20T00:51:44;4.90;99.90
10270;DHT22;5180;50.832;5.390;2022-11-20T00:54:09;4.90;99.90
10270;DHT22;5180;50.832;5.390;2022-11-20T00:56:35;5.00;99.90
10270;DHT22;5180;50.832;5.390;2022-11-20T00:59:01;5.00;99.90
10270;DHT22;5180;50.832;5.390;2022-11-20T01:01:26;5.10;99.90
10270;DHT22;5180;50.832;5.390;2022-11-20T01:03:55;5.10;99.90
10270;DHT22;5180;50.832;5.390;2022-11-20T01:06:23;5.10;99.90
10270;DHT22;5180;50.832;5.390;2022-11-20T01:08:50;5.10;99.90
10270;DHT22;5180;50.832;5.390;2022-11-20T01:11:22;5.20;99.90
10270;DHT22;5180;50.832;5.390;2022-11-20T01:13:51;5.20;99.90
10270;DHT22;5180;50.832;5.390;2022-11-20T01:18:47;5.20;99.90
10270;DHT22;5180;50.832;5.390;2022-11-20T01:21:21;5.20;99.90
10270;DHT22;5180;50.832;5.390;2022-11-20T01:23:48;5.20;99.90
10270;DHT22;5180;50.832;5.390;2022-11-20T01:26:16;5.20;99.90
10270;DHT22;5180;50.832;5.390;2022-11-20T01:28:43;5.20;99.90
10270;DHT22;5180;50.832;5.390;2022-11-20T01:31:18;5.20;99.90
10270;DHT22;5180;50.832;5.390;2022-11-20T01:33:44;5.20;99.90
10270;DHT22;5180;50.832;5.390;2022-11-20T01:36:11;5.30;99.90
10270;DHT22;5180;50.832;5.390;2022-11-20T01:38:38;5.20;99.90
10270;DHT22;5180;50.832;5.390;2022-11-20T01:41:04;5.20;99.90
10270;DHT22;5180;50.832;5.390;2022-11-20T01:43:30;5.10;99.90
10270;DHT22;5180;50.832;5.390;2022-11-20T01:48:24;5.10;99.90
10270;DHT22;5180;50.832;5.390;2022-11-20T01:50:51;5.10;99.90
10270;DHT22;5180;50.832;5.390;2022-11-20T01:53:19;5.10;99.90
10270;DHT22;5180;50.832;5.390;2022-11-20T01:55:52;5.10;99.90
10270;DHT22;5180;50.832;5.390;2022-11-20T01:58:21;5.10;99.90
10270;DHT22;5180;50.832;5.390;2022-11-20T02:00:48;5.10;99.90
10270;DHT22;5180;50.832;5.390;2022-11-20T02:03:19;5.10;99.90
10270;DHT22;5180;50.832;5.390;2022-11-20T02:08:33;5.10;99.90
10270;DHT22;5180;50.832;5.390;2022-11-20T02:10:59;5.00;99.90
10270;DHT22;5180;50.832;5.390;2022-11-20T02:13:25;5.00;99.90
10270;DHT22;5180;50.832;5.390;2022-11-20T02:16:30;5.00;99.90
10270;DHT22;5180;50.832;5.390;2022-11-20T02:18:58;4.90;99.90
10270;DHT22;5180;50.832;5.390;2022-11-20T02:21:36;4.90;99.90
10270;DHT22;5180;50.832;5.390;2022-11-20T02:26:40;4.90;99.90
10270;DHT22;5180;50.832;5.390;2022-11-20T02:29:06;4.90;99.90
10270;DHT22;5180;50.832;5.390;2022-11-20T02:31:40;4.90;99.90
10270;DHT22;5180;50.832;5.390;2022-11-20T02:34:08;4.80;99.90
10270;DHT22;5180;50.832;5.390;2022-11-20T02:36:34;4.80;99.90
10270;DHT22;5180;50.832;5.390;2022-11-20T02:39:02;4.80;99.90
10270;DHT22;5180;50.832;5.390;2022-11-20T02:41:36;4.80;99.90
10270;DHT22;5180;50.832;5.390;2022-11-20T02:44:03;4.80;99.90
10270;DHT22;5180;50.832;5.390;2022-11-20T02:46:29;4.80;99.90
10270;DHT22;5180;50.832;5.390;2022-11-20T02:48:55;4.80;99.90
10270;DHT22;5180;50.832;5.390;2022-11-20T02:51:22;4.90;99.90
10270;DHT22;5180;50.832;5.390;2022-11-20T02:53:47;4.90;99.90
10270;DHT22;5180;50.832;5.390;2022-11-20T02:56:13;4.90;99.90
10270;DHT22;5180;50.832;5.390;2022-11-20T02:58:39;4.90;99.90
10270;DHT22;5180;50.832;5.390;2022-11-20T03:01:04;5.00;99.90
10270;DHT22;5180;50.832;5.390;2022-11-20T03:03:30;5.00;99.90
10270;DHT22;5180;50.832;5.390;2022-11-20T03:05:58;5.00;99.90
10270;DHT22;5180;50.832;5.390;2022-11-20T03:08:24;5.00;99.90
10270;DHT22;5180;50.832;5.390;2022-11-20T03:10:49;5.00;99.90
10270;DHT22;5180;50.832;5.390;2022-11-20T03:13:15;5.00;99.90
10270;DHT22;5180;50.832;5.390;2022-11-20T03:15:41;5.10;99.90
10270;DHT22;5180;50.832;5.390;2022-11-20T03:18:06;5.00;99.90
10270;DHT22;5180;50.832;5.390;2022-11-20T03:20:33;5.00;99.90
10270;DHT22;5180;50.832;5.390;2022-11-20T03:22:59;5.00;99.90
10270;DHT22;5180;50.832;5.390;2022-11-20T03:25:25;5.00;99.90
10270;DHT22;5180;50.832;5.390;2022-11-20T03:27:50;5.00;99.90
10270;DHT22;5180;50.832;5.390;2022-11-20T03:30:16;5.00;99.90
10270;DHT22;5180;50.832;5.390;2022-11-20T03:32:42;5.00;99.90
10270;DHT22;5180;50.832;5.390;2022-11-20T03:35:08;5.00;99.90
10270;DHT22;5180;50.832;5.390;2022-11-20T03:37:34;5.00;99.90
10270;DHT22;5180;50.832;5.390;2022-11-20T03:39:59;5.00;99.90
10270;DHT22;5180;50.832;5.390;2022-11-20T03:42:25;5.00;99.90
10270;DHT22;5180;50.832;5.390;2022-11-20T03:45:09;5.00;99.90
10270;DHT22;5180;50.832;5.390;2022-11-20T03:47:35;5.00;99.90
10270;DHT22;5180;50.832;5.390;2022-11-20T03:50:01;4.90;99.90
10270;DHT22;5180;50.832;5.390;2022-11-20T03:52:27;4.90;99.90
10270;DHT22;5180;50.832;5.390;2022-11-20T03:54:52;4.90;99.90
10270;DHT22;5180;50.832;5.390;2022-11-20T03:57:18;4.90;99.90
10270;DHT22;5180;50.832;5.390;2022-11-20T03:59:43;4.90;99.90
10270;DHT22;5180;50.832;5.390;2022-11-20T04:02:09;4.90;99.90
10270;DHT22;5180;50.832;5.390;2022-11-20T04:04:35;4.90;99.90
10270;DHT22;5180;50.832;5.390;2022-11-20T04:07:00;4.90;99.90
10270;DHT22;5180;50.832;5.390;2022-11-20T04:09:26;4.90;99.90
10270;DHT22;5180;50.832;5.390;2022-11-20T04:11:51;4.90;99.90
10270;DHT22;5180;50.832;5.390;2022-11-20T04:14:17;4.90;99.90
10270;DHT22;5180;50.832;5.390;2022-11-20T04:16:43;4.90;99.90
10270;DHT22;5180;50.832;5.390;2022-11-20T04:19:14;4.90;99.90
10270;DHT22;5180;50.832;5.390;2022-11-20T04:21:41;5.00;99.90
10270;DHT22;5180;50.832;5.390;2022-11-20T04:24:07;5.00;99.90
10270;DHT22;5180;50.832;5.390;2022-11-20T04:26:33;5.00;99.90
10270;DHT22;5180;50.832;5.390;2022-11-20T04:28:59;5.00;99.90
10270;DHT22;5180;50.832;5.390;2022-11-20T04:31:32;5.00;99.90
10270;DHT22;5180;50.832;5.390;2022-11-20T04:34:03;5.00;99.90
10270;DHT22;5180;50.832;5.390;2022-11-20T04:36:30;5.00;99.90
10270;DHT22;5180;50.832;5.390;2022-11-20T04:39:01;5.00;99.90
10270;DHT22;5180;50.832;5.390;2022-11-20T04:41:34;5.00;99.90
10270;DHT22;5180;50.832;5.390;2022-11-20T04:44:01;5.10;99.90
10270;DHT22;5180;50.832;5.390;2022-11-20T04:46:39;5.00;99.90
10270;DHT22;5180;50.832;5.390;2022-11-20T04:49:05;5.00;99.90
10270;DHT22;5180;50.832;5.390;2022-11-20T04:51:32;5.00;99.90
10270;DHT22;5180;50.832;5.390;2022-11-20T04:53:58;4.90;99.90
10270;DHT22;5180;50.832;5.390;2022-11-20T04:56:24;5.00;99.90
10270;DHT22;5180;50.832;5.390;2022-11-20T04:58:49;5.00;99.90
10270;DHT22;5180;50.832;5.390;2022-11-20T05:01:18;5.10;99.90
10270;DHT22;5180;50.832;5.390;2022-11-20T05:03:44;5.20;99.90
10270;DHT22;5180;50.832;5.390;2022-11-20T05:06:12;5.10;99.90
10270;DHT22;5180;50.832;5.390;2022-11-20T05:08:38;5.10;99.90
10270;DHT22;5180;50.832;5.390;2022-11-20T05:11:06;5.20;99.90
10270;DHT22;5180;50.832;5.390;2022-11-20T05:13:32;5.20;99.90
10270;DHT22;5180;50.832;5.390;2022-11-20T05:16:05;5.20;99.90
10270;DHT22;5180;50.832;5.390;2022-11-20T05:18:32;5.20;99.90
10270;DHT22;5180;50.832;5.390;2022-11-20T05:20:58;5.20;99.90
10270;DHT22;5180;50.832;5.390;2022-11-20T05:23:24;5.20;99.90
10270;DHT22;5180;50.832;5.390;2022-11-20T05:25:54;5.30;99.90
10270;DHT22;5180;50.832;5.390;2022-11-20T05:28:20;5.30;99.90
10270;DHT22;5180;50.832;5.390;2022-11-20T05:30:46;5.30;99.90
10270;DHT22;5180;50.832;5.390;2022-11-20T05:33:12;5.30;99.90
10270;DHT22;5180;50.832;5.390;2022-11-20T05:35:37;5.20;99.90
10270;DHT22;5180;50.832;5.390;2022-11-20T05:38:03;5.10;99.90
10270;DHT22;5180;50.832;5.390;2022-11-20T05:40:28;5.20;99.90
10270;DHT22;5180;50.832;5.390;2022-11-20T05:42:54;5.20;99.90
10270;DHT22;5180;50.832;5.390;2022-11-20T05:45:20;5.20;99.90
10270;DHT22;5180;50.832;5.390;2022-11-20T05:47:45;5.20;99.90
10270;DHT22;5180;50.832;5.390;2022-11-20T05:50:11;5.30;99.90
10270;DHT22;5180;50.832;5.390;2022-11-20T05:52:37;5.30;99.90
10270;DHT22;5180;50.832;5.390;2022-11-20T05:55:03;5.30;99.90
10270;DHT22;5180;50.832;5.390;2022-11-20T05:57:28;5.30;99.90
10270;DHT22;5180;50.832;5.390;2022-11-20T05:59:54;5.30;99.90
10270;DHT22;5180;50.832;5.390;2022-11-20T06:02:19;5.30;99.90
10270;DHT22;5180;50.832;5.390;2022-11-20T06:04:45;5.30;99.90
10270;DHT22;5180;50.832;5.390;2022-11-20T06:07:11;5.30;99.90
10270;DHT22;5180;50.832;5.390;2022-11-20T06:09:36;5.20;99.90
10270;DHT22;5180;50.832;5.390;2022-11-20T06:12:02;5.20;99.90
10270;DHT22;5180;50.832;5.390;2022-11-20T06:14:28;5.20;99.90
10270;DHT22;5180;50.832;5.390;2022-11-20T06:16:53;5.20;99.90
10270;DHT22;5180;50.832;5.390;2022-11-20T06:19:19;5.20;99.90
10270;DHT22;5180;50.832;5.390;2022-11-20T06:21:44;5.30;99.90
10270;DHT22;5180;50.832;5.390;2022-11-20T06:24:10;5.30;99.90
10270;DHT22;5180;50.832;5.390;2022-11-20T06:26:36;5.30;99.90
10270;DHT22;5180;50.832;5.390;2022-11-20T06:29:02;5.30;99.90
10270;DHT22;5180;50.832;5.390;2022-11-20T06:31:28;5.30;99.90
10270;DHT22;5180;50.832;5.390;2022-11-20T06:33:54;5.40;99.90
10270;DHT22;5180;50.832;5.390;2022-11-20T06:36:22;5.30;99.90
10270;DHT22;5180;50.832;5.390;2022-11-20T06:38:48;5.30;99.90
10270;DHT22;5180;50.832;5.390;2022-11-20T06:41:16;5.30;99.90
10270;DHT22;5180;50.832;5.390;2022-11-20T06:43:42;5.30;99.90
10270;DHT22;5180;50.832;5.390;2022-11-20T06:46:10;5.30;99.90
10270;DHT22;5180;50.832;5.390;2022-11-20T06:48:35;5.30;99.90
10270;DHT22;5180;50.832;5.390;2022-11-20T06:51:06;5.30;99.90
10270;DHT22;5180;50.832;5.390;2022-11-20T06:53:32;5.40;99.90
10270;DHT22;5180;50.832;5.390;2022-11-20T06:55:58;5.30;99.90
10270;DHT22;5180;50.832;5.390;2022-11-20T06:58:27;5.30;99.90
10270;DHT22;5180;50.832;5.390;2022-11-20T07:00:53;5.20;99.90
10270;DHT22;5180;50.832;5.390;2022-11-20T07:03:19;5.20;99.90
10270;DHT22;5180;50.832;5.390;2022-11-20T07:05:44;5.20;99.90
10270;DHT22;5180;50.832;5.390;2022-11-20T07:08:11;5.10;99.90
10270;DHT22;5180;50.832;5.390;2022-11-20T07:10:37;5.10;99.90
10270;DHT22;5180;50.832;5.390;2022-11-20T07:13:03;5.10;99.90
10270;DHT22;5180;50.832;5.390;2022-11-20T07:15:29;5.20;99.90
10270;DHT22;5180;50.832;5.390;2022-11-20T07:17:54;5.20;99.90
10270;DHT22;5180;50.832;5.390;2022-11-20T07:20:20;5.20;99.90
10270;DHT22;5180;50.832;5.390;2022-11-20T07:22:46;5.30;99.90
10270;DHT22;5180;50.832;5.390;2022-11-20T07:25:12;5.30;99.90
10270;DHT22;5180;50.832;5.390;2022-11-20T07:27:37;5.30;99.90
10270;DHT22;5180;50.832;5.390;2022-11-20T07:30:04;5.30;99.90
10270;DHT22;5180;50.832;5.390;2022-11-20T07:32:30;5.30;99.90
10270;DHT22;5180;50.832;5.390;2022-11-20T07:34:55;5.30;99.90
10270;DHT22;5180;50.832;5.390;2022-11-20T07:37:21;5.40;99.90
10270;DHT22;5180;50.832;5.390;2022-11-20T07:39:46;5.30;99.90
10270;DHT22;5180;50.832;5.390;2022-11-20T07:42:12;5.30;99.90
10270;DHT22;5180;50.832;5.390;2022-11-20T07:44:38;5.30;99.90
10270;DHT22;5180;50.832;5.390;2022-11-20T07:47:04;5.40;99.90
10270;DHT22;5180;50.832;5.390;2022-11-20T07:49:30;5.40;99.90
10270;DHT22;5180;50.832;5.390;2022-11-20T07:51:55;5.40;99.90
10270;DHT22;5180;50.832;5.390;2022-11-20T07:54:22;5.40;99.90
10270;DHT22;5180;50.832;5.390;2022-11-20T07:56:50;5.50;99.90
10270;DHT22;5180;50.832;5.390;2022-11-20T07:59:16;5.60;99.90
10270;DHT22;5180;50.832;5.390;2022-11-20T08:01:42;5.70;99.90
10270;DHT22;5180;50.832;5.390;2022-11-20T08:04:09;5.80;99.90
10270;DHT22;5180;50.832;5.390;2022-11-20T08:06:35;5.90;99.90
10270;DHT22;5180;50.832;5.390;2022-11-20T08:09:02;6.00;99.90
10270;DHT22;5180;50.832;5.390;2022-11-20T08:11:27;6.10;99.90
10270;DHT22;5180;50.832;5.390;2022-11-20T08:14:12;6.30;99.90
10270;DHT22;5180;50.832;5.390;2022-11-20T08:16:45;6.40;99.90
10270;DHT22;5180;50.832;5.390;2022-11-20T08:19:13;6.40;99.90
10270;DHT22;5180;50.832;5.390;2022-11-20T08:21:39;6.50;99.90
10270;DHT22;5180;50.832;5.390;2022-11-20T08:24:06;6.40;99.90
10270;DHT22;5180;50.832;5.390;2022-11-20T08:26:32;6.40;99.90
10270;DHT22;5180;50.832;5.390;2022-11-20T08:28:58;6.50;99.90
10270;DHT22;5180;50.832;5.390;2022-11-20T08:31:25;6.50;99.90
10270;DHT22;5180;50.832;5.390;2022-11-20T08:33:51;6.50;99.90
10270;DHT22;5180;50.832;5.390;2022-11-20T08:36:18;6.50;99.90
10270;DHT22;5180;50.832;5.390;2022-11-20T08:38:48;6.60;99.90
10270;DHT22;5180;50.832;5.390;2022-11-20T08:41:14;6.60;99.90
10270;DHT22;5180;50.832;5.390;2022-11-20T08:43:49;6.70;99.90
10270;DHT22;5180;50.832;5.390;2022-11-20T08:46:15;6.70;99.90
10270;DHT22;5180;50.832;5.390;2022-11-20T08:48:40;6.70;99.90
10270;DHT22;5180;50.832;5.390;2022-11-20T08:51:06;6.90;99.90
10270;DHT22;5180;50.832;5.390;2022-11-20T08:53:31;7.00;99.90
10270;DHT22;5180;50.832;5.390;2022-11-20T08:55:57;7.00;99.90
10270;DHT22;5180;50.832;5.390;2022-11-20T08:58:24;7.10;99.90
10270;DHT22;5180;50.832;5.390;2022-11-20T09:00:50;7.10;99.90
10270;DHT22;5180;50.832;5.390;2022-11-20T09:03:15;7.20;99.90
10270;DHT22;5180;50.832;5.390;2022-11-20T09:05:41;7.30;99.90
10270;DHT22;5180;50.832;5.390;2022-11-20T09:08:08;7.40;99.90
10270;DHT22;5180;50.832;5.390;2022-11-20T09:10:33;7.50;99.90
10270;DHT22;5180;50.832;5.390;2022-11-20T09:12:59;7.60;99.90
10270;DHT22;5180;50.832;5.390;2022-11-20T09:15:25;7.60;99.90
10270;DHT22;5180;50.832;5.390;2022-11-20T09:17:55;7.60;99.90
10270;DHT22;5180;50.832;5.390;2022-11-20T09:20:21;7.60;99.90
10270;DHT22;5180;50.832;5.390;2022-11-20T09:22:47;7.60;99.90
10270;DHT22;5180;50.832;5.390;2022-11-20T09:25:13;7.60;99.90
10270;DHT22;5180;50.832;5.390;2022-11-20T09:27:39;7.60;99.90
10270;DHT22;5180;50.832;5.390;2022-11-20T09:30:07;7.50;99.90
10270;DHT22;5180;50.832;5.390;2022-11-20T09:32:32;7.50;99.90
10270;DHT22;5180;50.832;5.390;2022-11-20T09:34:58;7.60;99.90
10270;DHT22;5180;50.832;5.390;2022-11-20T09:37:24;7.60;99.90
10270;DHT22;5180;50.832;5.390;2022-11-20T09:39:49;7.60;99.90
10270;DHT22;5180;50.832;5.390;2022-11-20T09:45:44;7.80;99.90
10270;DHT22;5180;50.832;5.390;2022-11-20T09:53:41;8.00;99.90
10270;DHT22;5180;50.832;5.390;2022-11-20T09:56:11;8.10;99.90
10270;DHT22;5180;50.832;5.390;2022-11-20T09:58:41;8.30;99.90
10270;DHT22;5180;50.832;5.390;2022-11-20T10:01:40;8.30;99.90
10270;DHT22;5180;50.832;5.390;2022-11-20T10:04:17;8.30;99.90
10270;DHT22;5180;50.832;5.390;2022-11-20T10:07:04;8.40;99.90
10270;DHT22;5180;50.832;5.390;2022-11-20T10:09:35;8.40;99.90
10270;DHT22;5180;50.832;5.390;2022-11-20T10:14:54;8.60;99.90
10270;DHT22;5180;50.832;5.390;2022-11-20T10:17:51;8.80;99.90
10270;DHT22;5180;50.832;5.390;2022-11-20T10:20:49;8.80;99.90
10270;DHT22;5180;50.832;5.390;2022-11-20T10:26:02;8.90;99.90
10270;DHT22;5180;50.832;5.390;2022-11-20T10:31:24;8.80;99.90
10270;DHT22;5180;50.832;5.390;2022-11-20T10:33:52;8.90;99.90
10270;DHT22;5180;50.832;5.390;2022-11-20T10:36:40;8.90;99.90
10270;DHT22;5180;50.832;5.390;2022-11-20T10:39:20;8.90;99.90
10270;DHT22;5180;50.832;5.390;2022-11-20T10:41:51;9.00;99.90
10270;DHT22;5180;50.832;5.390;2022-11-20T10:44:26;9.10;99.90
10270;DHT22;5180;50.832;5.390;2022-11-20T10:47:16;9.20;99.90
10270;DHT22;5180;50.832;5.390;2022-11-20T10:49:45;9.30;99.90
10270;DHT22;5180;50.832;5.390;2022-11-20T11:00:16;9.90;99.90
10270;DHT22;5180;50.832;5.390;2022-11-20T11:02:54;10.00;99.90
10270;DHT22;5180;50.832;5.390;2022-11-20T11:05:22;10.10;99.90
10270;DHT22;5180;50.832;5.390;2022-11-20T11:07:55;10.10;99.90
10270;DHT22;5180;50.832;5.390;2022-11-20T11:10:48;10.20;99.90
10270;DHT22;5180;50.832;5.390;2022-11-20T11:13:29;10.30;99.90
10270;DHT22;5180;50.832;5.390;2022-11-20T11:15:56;10.30;99.90
10270;DHT22;5180;50.832;5.390;2022-11-20T11:18:27;10.40;99.90
10270;DHT22;5180;50.832;5.390;2022-11-20T11:20:56;10.40;99.90
10270;DHT22;5180;50.832;5.390;2022-11-20T11:23:39;10.40;99.90
10270;DHT22;5180;50.832;5.390;2022-11-20T11:26:19;10.50;99.90
10270;DHT22;5180;50.832;5.390;2022-11-20T11:28:55;10.50;99.90
10270;DHT22;5180;50.832;5.390;2022-11-20T11:31:32;10.60;99.90
10270;DHT22;5180;50.832;5.390;2022-11-20T11:36:32;10.70;99.90
10270;DHT22;5180;50.832;5.390;2022-11-20T11:38:58;10.80;99.90
10270;DHT22;5180;50.832;5.390;2022-11-20T11:41:28;10.80;99.90
10270;DHT22;5180;50.832;5.390;2022-11-20T11:43:55;10.80;99.90
10270;DHT22;5180;50.832;5.390;2022-11-20T11:46:49;10.90;99.90
10270;DHT22;5180;50.832;5.390;2022-11-20T11:49:19;11.00;99.90
10270;DHT22;5180;50.832;5.390;2022-11-20T11:52:10;11.10;99.90
10270;DHT22;5180;50.832;5.390;2022-11-20T11:54:57;11.10;99.90
10270;DHT22;5180;50.832;5.390;2022-11-20T12:00:21;11.20;99.90
10270;DHT22;5180;50.832;5.390;2022-11-20T12:02:56;11.30;99.90
10270;DHT22;5180;50.832;5.390;2022-11-20T12:05:36;11.40;99.90
10270;DHT22;5180;50.832;5.390;2022-11-20T12:08:51;11.60;99.90
10270;DHT22;5180;50.832;5.390;2022-11-20T12:16:51;11.80;99.90
10270;DHT22;5180;50.832;5.390;2022-11-20T12:19:18;11.80;99.90
10270;DHT22;5180;50.832;5.390;2022-11-20T12:25:11;11.70;99.90
10270;DHT22;5180;50.832;5.390;2022-11-20T12:31:30;11.60;99.90
10270;DHT22;5180;50.832;5.390;2022-11-20T12:33:53;11.50;99.90
10270;DHT22;5180;50.832;5.390;2022-11-20T12:42:08;11.30;99.90
10270;DHT22;5180;50.832;5.390;2022-11-20T12:53:04;11.10;99.90
10270;DHT22;5180;50.832;5.390;2022-11-20T12:55:46;11.20;99.90
10270;DHT22;5180;50.832;5.390;2022-11-20T12:58:36;11.20;99.90
10270;DHT22;5180;50.832;5.390;2022-11-20T13:01:29;11.10;99.90
10270;DHT22;5180;50.832;5.390;2022-11-20T13:06:58;10.90;99.90
10270;DHT22;5180;50.832;5.390;2022-11-20T13:09:25;10.80;99.90
10270;DHT22;5180;50.832;5.390;2022-11-20T13:17:41;10.50;99.90
10270;DHT22;5180;50.832;5.390;2022-11-20T13:20:16;10.40;99.90
10270;DHT22;5180;50.832;5.390;2022-11-20T13:22:47;10.20;99.90
10270;DHT22;5180;50.832;5.390;2022-11-20T13:25:28;10.10;99.90
10270;DHT22;5180;50.832;5.390;2022-11-20T13:27:55;10.00;99.90
10270;DHT22;5180;50.832;5.390;2022-11-20T13:30:23;9.90;99.90
10270;DHT22;5180;50.832;5.390;2022-11-20T13:38:05;9.70;99.90
10270;DHT22;5180;50.832;5.390;2022-11-20T13:40:31;9.50;99.90
10270;DHT22;5180;50.832;5.390;2022-11-20T13:46:04;9.40;99.90
10270;DHT22;5180;50.832;5.390;2022-11-20T13:48:32;9.30;99.90
10270;DHT22;5180;50.832;5.390;2022-11-20T14:02:19;8.80;99.90
10270;DHT22;5180;50.832;5.390;2022-11-20T14:04:50;8.70;99.90
10270;DHT22;5180;50.832;5.390;2022-11-20T14:07:21;8.70;99.90
10270;DHT22;5180;50.832;5.390;2022-11-20T14:09:57;8.70;99.90
10270;DHT22;5180;50.832;5.390;2022-11-20T14:12:33;8.70;99.90
10270;DHT22;5180;50.832;5.390;2022-11-20T14:14:59;8.70;99.90
10270;DHT22;5180;50.832;5.390;2022-11-20T14:17:32;8.60;99.90
10270;DHT22;5180;50.832;5.390;2022-11-20T14:20:05;8.60;99.90
10270;DHT22;5180;50.832;5.390;2022-11-20T14:22:31;8.60;99.90
10270;DHT22;5180;50.832;5.390;2022-11-20T14:25:07;8.50;99.90
10270;DHT22;5180;50.832;5.390;2022-11-20T14:27:54;8.60;99.90
10270;DHT22;5180;50.832;5.390;2022-11-20T14:30:28;8.60;99.90
10270;DHT22;5180;50.832;5.390;2022-11-20T14:33:01;8.50;99.90
10270;DHT22;5180;50.832;5.390;2022-11-20T14:35:30;8.50;99.90
10270;DHT22;5180;50.832;5.390;2022-11-20T14:37:57;8.50;99.90
10270;DHT22;5180;50.832;5.390;2022-11-20T14:40:31;8.40;99.90
10270;DHT22;5180;50.832;5.390;2022-11-20T14:42:58;8.40;99.90
10270;DHT22;5180;50.832;5.390;2022-11-20T14:45:25;8.40;99.90
10270;DHT22;5180;50.832;5.390;2022-11-20T14:47:56;8.30;99.90
10270;DHT22;5180;50.832;5.390;2022-11-20T14:50:28;8.30;99.90
10270;DHT22;5180;50.832;5.390;2022-11-20T14:52:59;8.30;99.90
10270;DHT22;5180;50.832;5.390;2022-11-20T14:55:35;8.20;99.90
10270;DHT22;5180;50.832;5.390;2022-11-20T14:58:04;8.20;99.90
10270;DHT22;5180;50.832;5.390;2022-11-20T15:00:31;8.20;99.90
10270;DHT22;5180;50.832;5.390;2022-11-20T15:02:57;8.20;99.90
10270;DHT22;5180;50.832;5.390;2022-11-20T15:05:44;8.30;99.90
10270;DHT22;5180;50.832;5.390;2022-11-20T15:08:11;8.30;99.90
10270;DHT22;5180;50.832;5.390;2022-11-20T15:10:37;8.30;99.90
10270;DHT22;5180;50.832;5.390;2022-11-20T15:13:12;8.30;99.90
10270;DHT22;5180;50.832;5.390;2022-11-20T15:15:50;8.30;99.90
10270;DHT22;5180;50.832;5.390;2022-11-20T15:18:18;8.30;99.90
10270;DHT22;5180;50.832;5.390;2022-11-20T15:20:45;8.30;99.90
10270;DHT22;5180;50.832;5.390;2022-11-20T15:23:13;8.30;99.90
10270;DHT22;5180;50.832;5.390;2022-11-20T15:25:39;8.30;99.90
10270;DHT22;5180;50.832;5.390;2022-11-20T15:28:21;8.30;99.90
10270;DHT22;5180;50.832;5.390;2022-11-20T15:30:49;8.30;99.90
10270;DHT22;5180;50.832;5.390;2022-11-20T15:33:16;8.30;99.90
10270;DHT22;5180;50.832;5.390;2022-11-20T15:35:41;8.30;99.90
10270;DHT22;5180;50.832;5.390;2022-11-20T15:38:07;8.30;99.90
10270;DHT22;5180;50.832;5.390;2022-11-20T15:40:33;8.30;99.90
10270;DHT22;5180;50.832;5.390;2022-11-20T15:42:59;8.40;99.90
10270;DHT22;5180;50.832;5.390;2022-11-20T15:48:03;8.40;99.90
10270;DHT22;5180;50.832;5.390;2022-11-20T15:50:38;8.40;99.90
10270;DHT22;5180;50.832;5.390;2022-11-20T15:53:04;8.40;99.90
10270;DHT22;5180;50.832;5.390;2022-11-20T15:55:30;8.40;99.90
10270;DHT22;5180;50.832;5.390;2022-11-20T15:57:56;8.40;99.90
10270;DHT22;5180;50.832;5.390;2022-11-20T16:00:22;8.40;99.90
10270;DHT22;5180;50.832;5.390;2022-11-20T16:02:47;8.40;99.90
10270;DHT22;5180;50.832;5.390;2022-11-20T16:05:14;8.40;99.90
10270;DHT22;5180;50.832;5.390;2022-11-20T16:07:40;8.50;99.90
10270;DHT22;5180;50.832;5.390;2022-11-20T16:10:06;8.40;99.90
10270;DHT22;5180;50.832;5.390;2022-11-20T16:12:31;8.40;99.90
10270;DHT22;5180;50.832;5.390;2022-11-20T16:15:16;8.50;99.90
10270;DHT22;5180;50.832;5.390;2022-11-20T16:17:59;8.50;99.90
10270;DHT22;5180;50.832;5.390;2022-11-20T16:20:25;8.50;99.90
10270;DHT22;5180;50.832;5.390;2022-11-20T16:22:51;8.50;99.90
10270;DHT22;5180;50.832;5.390;2022-11-20T16:25:16;8.60;99.90
10270;DHT22;5180;50.832;5.390;2022-11-20T16:27:42;8.60;99.90
10270;DHT22;5180;50.832;5.390;2022-11-20T16:30:08;8.60;99.90
10270;DHT22;5180;50.832;5.390;2022-11-20T16:32:34;8.70;99.90
10270;DHT22;5180;50.832;5.390;2022-11-20T16:34:59;8.70;99.90
10270;DHT22;5180;50.832;5.390;2022-11-20T16:37:25;8.70;99.90
10270;DHT22;5180;50.832;5.390;2022-11-20T16:39:50;8.80;99.90
10270;DHT22;5180;50.832;5.390;2022-11-20T16:42:16;8.80;99.90
10270;DHT22;5180;50.832;5.390;2022-11-20T16:44:45;8.90;99.90
10270;DHT22;5180;50.832;5.390;2022-11-20T16:47:11;8.90;99.90
10270;DHT22;5180;50.832;5.390;2022-11-20T16:49:37;8.90;99.90
10270;DHT22;5180;50.832;5.390;2022-11-20T16:52:02;8.90;99.90
10270;DHT22;5180;50.832;5.390;2022-11-20T16:54:28;9.00;99.90
10270;DHT22;5180;50.832;5.390;2022-11-20T16:56:53;9.00;99.90
10270;DHT22;5180;50.832;5.390;2022-11-20T16:59:19;9.00;99.90
10270;DHT22;5180;50.832;5.390;2022-11-20T17:01:45;9.10;99.90
10270;DHT22;5180;50.832;5.390;2022-11-20T17:04:11;9.10;99.90
10270;DHT22;5180;50.832;5.390;2022-11-20T17:06:39;9.00;99.90
10270;DHT22;5180;50.832;5.390;2022-11-20T17:09:05;9.00;99.90
10270;DHT22;5180;50.832;5.390;2022-11-20T17:11:34;9.00;99.90
10270;DHT22;5180;50.832;5.390;2022-11-20T17:14:00;9.00;99.90
10270;DHT22;5180;50.832;5.390;2022-11-20T17:16:28;8.90;99.90
10270;DHT22;5180;50.832;5.390;2022-11-20T17:18:55;8.90;99.90
10270;DHT22;5180;50.832;5.390;2022-11-20T17:21:21;8.80;99.90
10270;DHT22;5180;50.832;5.390;2022-11-20T17:23:47;8.80;99.90
10270;DHT22;5180;50.832;5.390;2022-11-20T17:26:18;8.70;99.90
10270;DHT22;5180;50.832;5.390;2022-11-20T17:28:51;8.60;99.90
10270;DHT22;5180;50.832;5.390;2022-11-20T17:31:17;8.60;99.90
10270;DHT22;5180;50.832;5.390;2022-11-20T17:33:43;8.60;99.90
10270;DHT22;5180;50.832;5.390;2022-11-20T17:36:11;8.50;99.90
10270;DHT22;5180;50.832;5.390;2022-11-20T17:38:37;8.50;99.90
10270;DHT22;5180;50.832;5.390;2022-11-20T17:41:14;8.50;99.90
10270;DHT22;5180;50.832;5.390;2022-11-20T17:43:41;8.50;99.90
10270;DHT22;5180;50.832;5.390;2022-11-20T17:46:12;8.50;99.90
10270;DHT22;5180;50.832;5.390;2022-11-20T17:48:38;8.50;99.90